createdAt,value
2018-05-17T00:00:15.049Z,12.50
2018-05-17T00:02:47.132Z,12.50
2018-05-17T00:05:16.821Z,12.50
2018-05-17T00:07:45.352Z,12.40
2018-05-17T00:10:17.470Z,12.40
2018-05-17T00:12:46.461Z,12.40
2018-05-17T00:15:17.592Z,12.40
2018-05-17T00:17:46.041Z,12.40
2018-05-17T00:20:15.637Z,12.40
2018-05-17T00:22:45.144Z,12.30
2018-05-17T00:25:14.624Z,12.30
2018-05-17T00:27:45.482Z,12.30
2018-05-17T00:30:14.300Z,12.30
2018-05-17T00:32:44.963Z,12.20
2018-05-17T00:35:16.704Z,12.20
2018-05-17T00:37:51.349Z,12.20
2018-05-17T00:40:27.813Z,12.20
2018-05-17T00:43:02.264Z,12.10
2018-05-17T00:45:40.173Z,12.10
2018-05-17T00:48:15.773Z,12.10
2018-05-17T00:50:46.460Z,12.10
2018-05-17T00:53:34.552Z,12.10
2018-05-17T00:56:03.224Z,12.10
2018-05-17T00:58:39.984Z,12.10
2018-05-17T01:01:12.173Z,12.00
2018-05-17T01:03:48.044Z,12.10
2018-05-17T01:06:17.431Z,12.10
2018-05-17T01:08:47.120Z,12.00
2018-05-17T01:11:17.670Z,12.00
2018-05-17T01:13:46.209Z,12.00
2018-05-17T01:16:16.617Z,12.00
2018-05-17T01:18:46.938Z,12.00
2018-05-17T01:21:16.378Z,12.00
2018-05-17T01:23:52.789Z,12.00
2018-05-17T01:26:43.704Z,12.00
2018-05-17T01:29:17.557Z,12.00
2018-05-17T01:32:12.970Z,12.00
2018-05-17T01:38:24.996Z,11.90
2018-05-17T02:00:25.203Z,11.70
2018-05-17T02:09:54.048Z,11.70
2018-05-17T02:12:47.161Z,11.60
2018-05-17T02:18:28.271Z,11.50
2018-05-17T02:20:56.553Z,11.50
2018-05-17T02:23:24.826Z,11.50
2018-05-17T02:25:53.150Z,11.50
2018-05-17T02:28:21.457Z,11.50
2018-05-17T02:30:49.800Z,11.50
2018-05-17T02:33:18.804Z,11.50
2018-05-17T02:35:47.109Z,11.40
2018-05-17T02:38:15.413Z,11.50
2018-05-17T02:40:43.753Z,11.50
2018-05-17T02:43:12.040Z,11.40
2018-05-17T02:45:40.388Z,11.40
2018-05-17T02:48:08.667Z,11.40
2018-05-17T02:50:37.033Z,11.40
2018-05-17T02:53:06.051Z,11.40
2018-05-17T02:55:34.410Z,11.30
2018-05-17T02:58:03.451Z,11.40
2018-05-17T03:00:31.752Z,11.30
2018-05-17T03:03:00.031Z,11.30
2018-05-17T03:05:28.325Z,11.30
2018-05-17T03:07:57.382Z,11.30
2018-05-17T03:10:25.667Z,11.20
2018-05-17T03:12:53.977Z,11.20
2018-05-17T03:15:22.276Z,11.20
2018-05-17T03:17:50.576Z,11.20
2018-05-17T03:20:18.869Z,11.20
2018-05-17T03:22:47.201Z,11.20
2018-05-17T03:25:15.974Z,11.20
2018-05-17T03:27:45.158Z,11.20
2018-05-17T03:30:13.515Z,11.10
2018-05-17T03:32:41.906Z,11.20
2018-05-17T03:35:10.291Z,11.20
2018-05-17T03:37:38.702Z,11.10
2018-05-17T03:40:07.071Z,11.10
2018-05-17T03:42:35.473Z,11.10
2018-05-17T03:45:03.787Z,11.10
2018-05-17T03:47:32.135Z,11.10
2018-05-17T03:50:00.430Z,11.10
2018-05-17T03:52:28.744Z,11.10
2018-05-17T03:54:57.063Z,11.10
2018-05-17T03:57:25.457Z,11.10
2018-05-17T03:59:54.534Z,11.10
2018-05-17T04:02:40.681Z,11.00
2018-05-17T04:05:26.857Z,11.10
2018-05-17T04:07:55.205Z,11.10
2018-05-17T04:10:23.548Z,11.10
2018-05-17T04:12:51.846Z,11.10
2018-05-17T04:15:20.215Z,11.10
2018-05-17T04:17:48.606Z,11.10
2018-05-17T04:20:16.956Z,11.00
2018-05-17T04:22:45.261Z,11.00
2018-05-17T04:25:13.512Z,11.00
2018-05-17T04:27:41.782Z,11.00
2018-05-17T04:30:10.048Z,11.00
2018-05-17T04:32:38.363Z,11.00
2018-05-17T04:35:06.676Z,11.00
2018-05-17T04:37:35.741Z,11.00
2018-05-17T04:40:04.050Z,10.90
2018-05-17T04:42:33.090Z,11.00
2018-05-17T04:45:01.368Z,10.90
2018-05-17T04:47:29.653Z,11.00
2018-05-17T04:49:57.916Z,11.00
2018-05-17T04:52:26.190Z,10.90
2018-05-17T04:54:54.445Z,10.90
2018-05-17T10:19:26.571Z,16.90
2018-05-17T10:21:55.716Z,17.00
2018-05-17T10:24:24.036Z,17.00
2018-05-17T10:26:52.313Z,17.10
2018-05-17T10:29:21.384Z,17.20
2018-05-17T10:31:49.631Z,17.10
2018-05-17T10:34:17.867Z,17.20
2018-05-17T10:36:46.328Z,17.30
2018-05-17T10:39:14.573Z,17.30
2018-05-17T10:41:42.932Z,17.30
2018-05-17T10:44:11.230Z,17.40
2018-05-17T10:46:39.476Z,17.40
2018-05-17T10:49:07.753Z,17.50
2018-05-17T10:51:36.057Z,17.50
2018-05-17T10:54:04.375Z,17.60
2018-05-17T10:56:32.628Z,17.60
2018-05-17T10:59:00.931Z,17.70
2018-05-17T11:01:30.004Z,17.80
2018-05-17T11:03:58.263Z,17.70
2018-05-17T11:06:26.592Z,17.80
2018-05-17T11:08:54.938Z,17.90
2018-05-17T11:11:23.193Z,18.00
2018-05-17T11:13:51.520Z,18.00
2018-05-17T11:16:20.601Z,18.10
2018-05-17T11:18:48.917Z,18.00
2018-05-17T11:21:17.265Z,18.10
2018-05-17T11:23:46.316Z,18.20
2018-05-17T11:26:14.561Z,18.20
2018-05-17T11:28:42.880Z,18.30
2018-05-17T11:31:11.175Z,18.30
2018-05-17T11:33:39.497Z,18.40
2018-05-17T11:36:07.795Z,18.40
2018-05-17T11:38:36.103Z,18.50
2018-05-17T11:41:04.508Z,18.50
2018-05-17T11:43:33.558Z,18.70
2018-05-17T11:46:01.861Z,18.60
2018-05-17T11:48:31.017Z,18.80
2018-05-17T11:50:59.251Z,18.80
2018-05-17T11:53:27.573Z,18.90
2018-05-17T11:55:55.875Z,18.90
2018-05-17T11:58:24.235Z,18.90
2018-05-17T12:00:52.589Z,18.80
2018-05-17T12:03:20.875Z,18.80
2018-05-17T12:05:49.205Z,18.80
2018-05-17T12:08:17.551Z,18.90
2018-05-17T12:10:45.825Z,18.90
2018-05-17T12:13:14.155Z,19.00
2018-05-17T12:15:43.229Z,19.00
2018-05-17T12:18:11.536Z,19.00
2018-05-17T12:20:39.868Z,19.00
2018-05-17T12:23:08.286Z,19.00
2018-05-17T12:25:36.618Z,18.90
2018-05-17T12:28:04.954Z,19.00
2018-05-17T12:30:33.277Z,19.00
2018-05-17T12:33:01.581Z,19.00
2018-05-17T12:35:29.951Z,19.10
2018-05-17T12:37:58.223Z,19.10
2018-05-17T12:40:27.375Z,19.20
2018-05-17T12:42:55.772Z,19.10
2018-05-17T12:45:24.053Z,19.20
2018-05-17T12:47:52.352Z,19.30
2018-05-17T12:50:20.691Z,19.40
2018-05-17T12:52:48.975Z,19.40
2018-05-17T12:55:17.324Z,19.40
2018-05-17T12:57:45.698Z,19.40
2018-05-17T13:00:13.984Z,19.50
2018-05-17T13:02:42.325Z,19.50
2018-05-17T13:05:30.357Z,19.50
2018-05-17T13:07:58.689Z,19.50
2018-05-17T13:10:26.996Z,19.50
2018-05-17T13:12:55.413Z,19.60
2018-05-17T13:15:23.675Z,19.70
2018-05-17T13:17:51.997Z,19.70
2018-05-17T13:20:20.459Z,19.80
2018-05-17T13:22:48.845Z,19.80
2018-05-17T13:25:17.183Z,19.90
2018-05-17T13:27:45.465Z,19.90
2018-05-17T13:30:13.843Z,19.90
2018-05-17T13:32:42.104Z,20.00
2018-05-17T13:35:10.449Z,20.00
2018-05-17T13:37:38.754Z,20.00
2018-05-17T13:40:12.114Z,20.10
2018-05-17T13:42:40.567Z,20.10
2018-05-17T13:45:09.600Z,20.10
2018-05-17T13:47:37.875Z,20.10
2018-05-17T13:50:06.246Z,20.10
2018-05-17T13:52:34.524Z,20.10
2018-05-17T13:55:02.812Z,20.10
2018-05-17T13:57:31.188Z,20.20
2018-05-17T13:59:59.518Z,20.20
2018-05-17T14:02:27.951Z,20.20
2018-05-17T14:04:56.317Z,20.30
2018-05-17T14:07:24.756Z,20.30
2018-05-17T14:09:53.302Z,20.30
2018-05-17T14:12:21.597Z,20.30
2018-05-17T14:14:49.904Z,20.30
2018-05-17T14:17:18.951Z,20.30
2018-05-17T14:19:47.455Z,20.20
2018-05-17T14:22:16.153Z,20.30
2018-05-17T14:24:44.486Z,20.40
2018-05-17T14:27:12.813Z,20.40
2018-05-17T14:29:41.132Z,20.40
2018-05-17T14:32:09.415Z,20.50
2018-05-17T14:34:37.744Z,20.50
2018-05-17T14:37:06.026Z,20.50
2018-05-17T14:39:34.378Z,20.60
2018-05-17T14:42:02.659Z,20.60
2018-05-17T14:44:30.988Z,20.70
2018-05-17T14:47:00.134Z,20.70
2018-05-17T14:49:28.415Z,20.70
2018-05-17T14:51:56.812Z,20.80
2018-05-17T14:54:25.884Z,20.70
2018-05-17T14:56:54.231Z,20.70
2018-05-17T14:59:46.363Z,20.80
2018-05-17T15:08:27.295Z,20.90
2018-05-17T15:10:56.118Z,21.00
2018-05-17T15:13:24.509Z,21.00
2018-05-17T15:15:53.573Z,21.10
2018-05-17T15:18:21.907Z,21.00
2018-05-17T15:20:50.616Z,21.10
2018-05-17T15:23:19.085Z,21.10
2018-05-17T15:25:47.593Z,21.10
2018-05-17T15:28:15.942Z,21.10
2018-05-17T15:30:44.276Z,21.10
2018-05-17T15:33:12.644Z,21.00
2018-05-17T15:39:11.894Z,21.10
2018-05-17T15:41:40.220Z,21.00
2018-05-17T15:44:09.308Z,21.00
2018-05-17T15:46:37.549Z,20.90
2018-05-17T15:49:05.831Z,21.00
2018-05-17T15:51:34.089Z,21.00
2018-05-17T15:54:02.349Z,21.00
2018-05-17T15:56:30.697Z,21.00
2018-05-17T15:58:59.742Z,20.90
2018-05-17T16:01:28.029Z,20.90
2018-05-17T16:03:56.348Z,20.90
2018-05-17T16:06:25.457Z,20.80
2018-05-17T16:08:54.480Z,20.80
2018-05-17T16:11:22.811Z,20.70
2018-05-17T16:13:51.877Z,20.80
2018-05-17T16:16:20.149Z,20.80
2018-05-17T16:18:48.392Z,20.80
2018-05-17T16:21:22.867Z,20.80
2018-05-17T16:23:51.158Z,20.90
2018-05-17T16:26:19.478Z,20.90
2018-05-17T16:28:47.727Z,20.90
2018-05-17T16:31:16.801Z,20.80
2018-05-17T16:33:45.057Z,20.70
2018-05-17T16:36:13.333Z,20.70
2018-05-17T16:38:41.674Z,20.60
2018-05-17T16:41:09.990Z,20.50
2018-05-17T16:43:38.456Z,20.40
2018-05-17T16:46:06.767Z,20.40
2018-05-17T16:48:35.078Z,20.40
2018-05-17T16:51:03.286Z,20.30
2018-05-17T16:53:31.638Z,20.40
2018-05-17T16:55:59.987Z,20.40
2018-05-17T16:58:29.421Z,20.30
2018-05-17T17:00:57.699Z,20.30
2018-05-17T17:03:25.960Z,20.30
2018-05-17T17:05:55.021Z,20.10
2018-05-17T17:08:23.313Z,20.10
2018-05-17T17:10:51.630Z,20.00
2018-05-17T17:13:19.948Z,19.80
2018-05-17T17:54:43.936Z,18.20
2018-05-17T17:57:12.438Z,18.10
2018-05-17T17:59:42.259Z,18.00
2018-05-17T18:02:10.940Z,17.90
2018-05-17T18:04:39.241Z,17.80
2018-05-17T18:07:08.603Z,17.70
2018-05-17T18:09:37.905Z,17.60
2018-05-17T18:12:06.701Z,17.50
2018-05-17T18:14:35.826Z,17.40
2018-05-17T18:17:04.157Z,17.30
2018-05-17T18:19:32.471Z,17.30
2018-05-17T18:36:27.258Z,16.50
2018-05-17T18:38:55.567Z,16.40
2018-05-17T18:41:23.919Z,16.40
2018-05-17T18:43:52.279Z,16.30
2018-05-17T18:46:20.620Z,16.30
2018-05-17T18:48:48.972Z,16.20
2018-05-17T18:51:17.359Z,16.10
2018-05-17T18:53:45.729Z,16.00
2018-05-17T18:56:20.263Z,16.00
2018-05-17T18:58:49.498Z,15.90
2018-05-17T19:01:17.886Z,15.90
2018-05-17T19:03:47.046Z,15.80
2018-05-17T19:06:15.682Z,15.80
2018-05-17T19:08:45.049Z,15.70
2018-05-17T19:11:13.419Z,15.70
2018-05-17T19:13:41.772Z,15.60
2018-05-17T19:16:10.152Z,15.60
2018-05-17T19:18:38.727Z,15.60
2018-05-17T19:21:07.321Z,15.60
2018-05-17T19:23:36.704Z,15.50
2018-05-17T19:26:05.113Z,15.50
2018-05-17T19:28:33.445Z,15.50
2018-05-17T19:31:01.840Z,15.50
2018-05-17T19:33:30.971Z,15.40
2018-05-17T19:35:59.228Z,15.30
2018-05-17T19:38:27.606Z,15.40
2018-05-17T19:40:55.989Z,15.30
2018-05-17T19:43:24.252Z,15.30
2018-05-17T19:45:52.662Z,15.20
2018-05-17T19:48:21.131Z,15.20
2018-05-17T19:50:49.593Z,15.20
2018-05-17T19:53:17.945Z,15.20
2018-05-17T19:55:47.150Z,15.10
2018-05-17T19:58:16.980Z,15.00
2018-05-17T20:00:49.418Z,15.10
2018-05-17T20:03:18.323Z,15.00
2018-05-17T20:05:58.917Z,15.00
2018-05-17T20:08:27.682Z,15.00
2018-05-17T20:10:56.834Z,14.90
2018-05-17T20:13:25.280Z,14.80
2018-05-17T20:15:53.730Z,14.90
2018-05-17T20:18:22.222Z,14.80
2018-05-17T20:20:53.701Z,14.70
2018-05-17T20:23:24.094Z,14.70
2018-05-17T20:26:04.652Z,14.60
2018-05-17T20:28:33.652Z,14.60
2018-05-17T20:31:04.015Z,14.50
2018-05-17T20:33:33.336Z,14.40
2018-05-17T20:36:02.201Z,14.40
2018-05-17T20:38:30.633Z,14.40
2018-05-17T20:40:59.058Z,14.40
2018-05-17T20:43:27.991Z,14.30
2018-05-17T20:45:57.468Z,14.30
2018-05-17T20:48:25.999Z,14.20
2018-05-17T20:50:54.769Z,14.20
2018-05-17T20:53:23.808Z,14.20
2018-05-17T20:55:52.189Z,14.20
2018-05-17T20:58:20.583Z,14.20
2018-05-17T21:00:50.058Z,14.10
2018-05-17T21:03:18.557Z,14.10
2018-05-17T21:05:47.753Z,14.00
2018-05-17T21:08:16.984Z,14.00
2018-05-17T21:10:45.324Z,14.00
2018-05-17T21:13:13.811Z,13.90
2018-05-17T21:15:43.076Z,13.80
2018-05-17T21:18:11.407Z,13.80
2018-05-17T21:20:39.849Z,13.80
2018-05-17T21:23:08.990Z,13.70
2018-05-17T21:25:37.435Z,13.60
2018-05-17T21:28:05.913Z,13.60
2018-05-17T21:30:35.030Z,13.50
2018-05-17T21:33:03.475Z,13.50
2018-05-17T21:35:31.859Z,13.50
2018-05-17T21:38:00.257Z,13.50
2018-05-17T21:40:28.576Z,13.50
2018-05-17T21:42:56.939Z,13.50
2018-05-17T21:45:25.664Z,13.40
2018-05-17T21:47:55.123Z,13.40
2018-05-17T21:50:28.764Z,13.30
2018-05-17T21:52:57.435Z,13.30
2018-05-17T21:55:25.878Z,13.30
2018-05-17T21:58:00.755Z,13.30
2018-05-17T22:03:20.669Z,13.20
2018-05-17T22:05:59.055Z,13.10
2018-05-17T22:08:32.758Z,13.10
2018-05-17T22:11:08.253Z,13.10
2018-05-17T22:13:46.652Z,13.10
2018-05-17T22:16:22.453Z,13.00
2018-05-17T22:18:51.984Z,13.00
2018-05-17T22:21:20.383Z,13.00
2018-05-17T22:23:48.797Z,13.00
2018-05-17T22:26:17.200Z,13.00
2018-05-17T22:28:45.757Z,12.90
2018-05-17T22:31:14.165Z,12.90
2018-05-17T22:33:42.969Z,12.90
2018-05-17T22:36:11.382Z,12.80
2018-05-17T22:38:39.839Z,12.80
2018-05-17T22:41:12.470Z,12.80
2018-05-17T22:43:40.978Z,12.80
2018-05-17T22:46:09.342Z,12.80
2018-05-17T22:48:40.645Z,12.70
2018-05-17T22:51:09.113Z,12.70
2018-05-17T22:53:37.589Z,12.70
2018-05-17T22:56:06.758Z,12.70
2018-05-17T22:58:36.157Z,12.70
2018-05-17T23:01:05.375Z,12.70
2018-05-17T23:03:34.749Z,12.60
2018-05-17T23:06:03.973Z,12.60
2018-05-17T23:08:33.551Z,12.60
2018-05-17T23:11:02.757Z,12.60
2018-05-17T23:13:31.142Z,12.60
2018-05-17T23:15:59.603Z,12.60
2018-05-17T23:18:28.249Z,12.60
2018-05-17T23:20:56.605Z,12.60
2018-05-17T23:23:25.110Z,12.60
2018-05-17T23:25:53.547Z,12.60
2018-05-17T23:28:22.731Z,12.50
2018-05-17T23:30:51.101Z,12.50
2018-05-17T23:33:19.584Z,12.50
2018-05-17T23:35:48.789Z,12.50
2018-05-17T23:38:17.125Z,12.50
2018-05-17T23:54:22.946Z,12.10
2018-05-17T23:56:51.947Z,12.10
2018-05-17T23:59:20.256Z,12.00
